This is the latest recevied weather packets stored in our database for station/object DM4XI-13. If no packets are shown the sender has not sent any weather packets the latest 10 day(s).
| Time | Temp. | Humidity | Pressure | Rain* | Wind** | Luminosity | Snow |
|---|---|---|---|---|---|---|---|
| 1778242158 | 16.67° C | 54% | 1015.1 hPa | 0 mm | 0.45 m/s, 185° | 412 W/m² | - |
| 1778242097 | 16.67° C | 54% | 1015.2 hPa | 0 mm | 0 m/s | 457 W/m² | - |
| 1778242036 | 16.11° C | 55% | 1015.3 hPa | 0 mm | 0 m/s | 461 W/m² | - |
| 1778241974 | 16.11° C | 52% | 1015.3 hPa | 0 mm | 1.79 m/s, 168° | 533 W/m² | - |
| 1778241913 | 16.11° C | 55% | 1015 hPa | 0 mm | 0.45 m/s, 233° | 775 W/m² | - |
| 1778241853 | 16.11° C | 53% | 1015.2 hPa | 0 mm | 0.45 m/s, 131° | 568 W/m² | - |
| 1778241792 | 16.11° C | 54% | 1015.2 hPa | 0 mm | 0.89 m/s, 319° | 536 W/m² | - |
| 1778241730 | 16.11° C | 54% | 1015.3 hPa | 0 mm | 0.89 m/s, 263° | 498 W/m² | - |
| 1778241669 | 16.11° C | 52% | 1015.2 hPa | 0 mm | 1.34 m/s, 90° | 453 W/m² | - |
| 1778241608 | 16.11° C | 53% | 1015.1 hPa | 0 mm | 0.89 m/s, 10° | 521 W/m² | - |
| 1778241547 | 16.11° C | 53% | 1015.1 hPa | 0 mm | 1.34 m/s, 11° | 391 W/m² | - |
| 1778241486 | 16.11° C | 54% | 1015.3 hPa | 0 mm | 0.45 m/s, 152° | 367 W/m² | - |
| 1778241425 | 16.11° C | 54% | 1015.2 hPa | 0 mm | 0 m/s | 357 W/m² | - |
| 1778241364 | 16.11° C | 54% | 1015.3 hPa | 0 mm | 0.45 m/s, 166° | 357 W/m² | - |
| 1778241303 | 16.11° C | 53% | 1015.3 hPa | 0 mm | 0.89 m/s, 194° | 354 W/m² | - |
| 1778241242 | 16.11° C | 53% | 1015.3 hPa | 0 mm | 1.34 m/s, 350° | 347 W/m² | - |
| 1778241181 | 16.11° C | 53% | 1015.2 hPa | 0 mm | 0 m/s | 336 W/m² | - |
| 1778241121 | 16.11° C | 52% | 1015.3 hPa | 0 mm | 0.89 m/s, 143° | 331 W/m² | - |
| 1778241060 | 16.11° C | 54% | 1015.1 hPa | 0 mm | 0.45 m/s, 147° | 330 W/m² | - |
| 1778240999 | 15.56° C | 53% | 1015.2 hPa | 0 mm | 0.45 m/s, 73° | 333 W/m² | - |
| 1778240937 | 15.56° C | 55% | 1015.3 hPa | 0 mm | 0.45 m/s, 266° | 338 W/m² | - |
| 1778240876 | 16.11° C | 54% | 1015.1 hPa | 0 mm | 0.89 m/s, 305° | 346 W/m² | - |
| 1778240815 | 16.11° C | 55% | 1015.2 hPa | 0 mm | 0.89 m/s, 321° | 416 W/m² | - |
| 1778240755 | 16.11° C | 53% | 1015.2 hPa | 0 mm | 1.34 m/s, 18° | 335 W/m² | - |
| 1778240693 | 16.11° C | 55% | 1015.1 hPa | 0 mm | 0.89 m/s, 20° | 323 W/m² | - |
* Rain latest hour (hover to see other rain measurements)
** Current wind speed in m/s (hover to see current wind gust speed)